createdAt,value
2018-08-28T00:02:09.110Z,16.70
2018-08-28T00:04:37.165Z,16.60
2018-08-28T00:07:05.311Z,16.50
2018-08-28T00:09:33.368Z,16.50
2018-08-28T00:12:01.458Z,16.40
2018-08-28T00:14:29.525Z,16.40
2018-08-28T00:16:57.640Z,16.30
2018-08-28T00:19:25.632Z,16.30
2018-08-28T00:21:53.704Z,16.20
2018-08-28T00:24:21.757Z,16.20
2018-08-28T00:26:49.817Z,16.10
2018-08-28T00:29:17.879Z,16.00
2018-08-28T00:31:45.930Z,16.00
2018-08-28T00:34:13.985Z,15.90
2018-08-28T00:36:42.033Z,15.80
2018-08-28T00:39:10.076Z,15.70
2018-08-28T00:41:38.132Z,15.60
2018-08-28T00:44:06.228Z,15.50
2018-08-28T00:46:34.292Z,15.40
2018-08-28T00:49:02.339Z,15.30
2018-08-28T00:51:30.400Z,15.30
2018-08-28T00:53:58.449Z,15.20
2018-08-28T00:56:26.503Z,15.20
2018-08-28T00:58:54.556Z,15.10
2018-08-28T01:01:22.617Z,15.10
2018-08-28T01:03:50.659Z,15.00
2018-08-28T01:06:18.716Z,15.00
2018-08-28T01:08:46.772Z,15.00
2018-08-28T01:11:14.837Z,14.90
2018-08-28T01:13:42.897Z,14.90
2018-08-28T01:16:10.988Z,14.80
2018-08-28T01:18:39.032Z,14.80
2018-08-28T01:21:07.097Z,14.80
2018-08-28T01:23:35.144Z,14.70
2018-08-28T01:26:03.206Z,14.70
2018-08-28T01:28:31.243Z,14.70
2018-08-28T01:30:59.314Z,14.70
2018-08-28T01:33:27.386Z,14.70
2018-08-28T01:35:55.433Z,14.70
2018-08-28T01:38:23.489Z,14.70
2018-08-28T01:40:51.542Z,14.70
2018-08-28T01:43:22.858Z,14.70
2018-08-28T01:45:51.481Z,14.70
2018-08-28T01:48:19.550Z,14.60
2018-08-28T01:50:47.613Z,14.60
2018-08-28T01:53:15.685Z,14.60
2018-08-28T01:55:43.735Z,14.50
2018-08-28T01:58:11.796Z,14.50
2018-08-28T02:00:39.860Z,14.50
2018-08-28T02:03:07.908Z,14.50
2018-08-28T02:05:35.960Z,14.50
2018-08-28T02:08:04.021Z,14.50
2018-08-28T02:10:32.079Z,14.50
2018-08-28T02:13:00.134Z,14.40
2018-08-28T02:15:28.187Z,14.20
2018-08-28T02:17:56.242Z,14.20
2018-08-28T02:20:24.313Z,14.10
2018-08-28T02:22:52.383Z,14.00
2018-08-28T02:25:20.438Z,13.90
2018-08-28T02:27:48.502Z,13.90
2018-08-28T02:30:16.569Z,13.80
2018-08-28T02:32:44.629Z,13.80
2018-08-28T02:35:12.680Z,13.70
2018-08-28T02:37:40.741Z,13.70
2018-08-28T02:40:08.877Z,13.60
2018-08-28T02:42:36.932Z,13.60
2018-08-28T02:45:04.996Z,13.50
2018-08-28T02:47:33.044Z,13.50
2018-08-28T02:50:01.089Z,13.50
2018-08-28T02:52:29.136Z,13.40
2018-08-28T02:54:57.205Z,13.40
2018-08-28T02:57:25.249Z,13.40
2018-08-28T02:59:53.316Z,13.40
2018-08-28T03:02:21.384Z,13.40
2018-08-28T03:04:49.432Z,13.40
2018-08-28T03:07:17.489Z,13.40
2018-08-28T03:09:45.538Z,13.40
2018-08-28T03:12:13.601Z,13.40
2018-08-28T03:14:41.649Z,13.40
2018-08-28T03:17:09.711Z,13.40
2018-08-28T03:19:37.784Z,13.40
2018-08-28T03:22:05.825Z,13.50
2018-08-28T03:24:33.884Z,13.50
2018-08-28T03:27:01.935Z,13.50
2018-08-28T03:29:29.992Z,13.50
2018-08-28T03:31:58.036Z,13.60
2018-08-28T03:34:26.085Z,13.50
2018-08-28T03:36:54.409Z,13.50
2018-08-28T03:39:22.525Z,13.50
2018-08-28T03:41:50.575Z,13.50
2018-08-28T03:44:18.627Z,13.40
2018-08-28T03:46:46.673Z,13.40
2018-08-28T03:49:14.733Z,13.40
2018-08-28T03:51:42.772Z,13.40
2018-08-28T03:54:10.829Z,13.50
2018-08-28T03:56:38.883Z,13.40
2018-08-28T03:59:06.939Z,13.40
2018-08-28T04:01:34.988Z,13.40
2018-08-28T04:04:03.058Z,13.40
2018-08-28T04:06:31.138Z,13.30
2018-08-28T04:08:59.200Z,13.30
2018-08-28T04:11:27.240Z,13.30
2018-08-28T04:13:55.311Z,13.20
2018-08-28T04:16:23.365Z,13.20
2018-08-28T04:18:51.510Z,13.20
2018-08-28T04:21:19.564Z,13.10
2018-08-28T04:23:47.647Z,13.10
2018-08-28T04:26:15.723Z,13.00
2018-08-28T04:28:43.797Z,12.90
2018-08-28T04:31:11.844Z,12.80
2018-08-28T04:33:39.922Z,12.70
2018-08-28T04:36:08.028Z,12.70
2018-08-28T04:38:36.093Z,12.60
2018-08-28T04:41:04.246Z,12.60
2018-08-28T04:43:32.301Z,12.60
2018-08-28T04:46:00.357Z,12.60
2018-08-28T04:48:28.438Z,12.60
2018-08-28T04:50:56.480Z,12.70
2018-08-28T04:53:24.537Z,12.70
2018-08-28T04:55:52.717Z,12.70
2018-08-28T04:58:20.893Z,12.70
2018-08-28T05:00:49.039Z,12.70
2018-08-28T05:03:17.009Z,12.80
2018-08-28T05:05:45.066Z,12.80
2018-08-28T05:08:13.117Z,12.80
2018-08-28T05:10:41.169Z,12.80
2018-08-28T05:13:09.221Z,12.60
2018-08-28T05:15:37.275Z,12.60
2018-08-28T05:18:05.357Z,12.50
2018-08-28T05:20:33.418Z,12.60
2018-08-28T05:23:01.469Z,12.60
2018-08-28T05:25:29.524Z,12.60
2018-08-28T05:27:57.622Z,12.60
2018-08-28T05:30:25.744Z,12.60
2018-08-28T05:32:53.745Z,12.60
2018-08-28T05:35:21.809Z,12.70
2018-08-28T05:37:49.857Z,12.80
2018-08-28T05:40:17.933Z,13.00
2018-08-28T05:42:45.996Z,13.10
2018-08-28T05:45:14.052Z,13.20
2018-08-28T05:47:42.108Z,13.30
2018-08-28T05:50:10.160Z,13.30
2018-08-28T05:52:38.213Z,13.40
2018-08-28T05:55:06.286Z,13.40
2018-08-28T05:57:34.340Z,13.50
2018-08-28T06:00:02.615Z,13.70
2018-08-28T06:02:30.664Z,13.80
2018-08-28T06:04:58.737Z,13.90
2018-08-28T06:07:26.782Z,14.10
2018-08-28T06:09:54.841Z,14.30
2018-08-28T06:12:22.872Z,14.50
2018-08-28T06:14:51.043Z,14.80
2018-08-28T06:17:19.014Z,15.00
2018-08-28T06:19:47.084Z,15.20
2018-08-28T06:22:15.125Z,15.40
2018-08-28T06:24:43.239Z,15.50
2018-08-28T06:27:11.269Z,15.70
2018-08-28T06:29:39.733Z,16.00
2018-08-28T06:32:07.777Z,16.40
2018-08-28T06:34:35.842Z,16.70
2018-08-28T06:37:03.902Z,17.50
2018-08-28T06:39:31.960Z,18.50
2018-08-28T06:42:00.006Z,19.30
2018-08-28T06:44:28.101Z,20.30
2018-08-28T06:46:56.151Z,21.20
2018-08-28T06:49:24.243Z,22.10
2018-08-28T06:51:52.294Z,23.00
2018-08-28T06:54:20.352Z,23.80
2018-08-28T06:56:48.421Z,24.50
2018-08-28T06:59:16.490Z,25.10
2018-08-28T07:01:44.544Z,25.70
2018-08-28T07:04:12.598Z,26.50
2018-08-28T07:06:40.637Z,27.00
2018-08-28T07:09:08.993Z,27.30
2018-08-28T07:11:37.205Z,27.80
2018-08-28T07:14:05.660Z,28.20
2018-08-28T07:16:33.959Z,28.70
2018-08-28T07:19:02.246Z,29.50
2018-08-28T07:21:30.307Z,30.10
2018-08-28T07:23:58.720Z,30.80
2018-08-28T07:26:26.790Z,31.40
2018-08-28T07:28:54.845Z,31.70
2018-08-28T07:31:22.927Z,32.10
2018-08-28T07:33:50.966Z,32.40
2018-08-28T07:36:19.145Z,32.80
2018-08-28T07:38:47.207Z,33.40
2018-08-28T07:41:15.293Z,33.80
2018-08-28T07:43:43.358Z,34.20
2018-08-28T07:46:11.420Z,34.60
2018-08-28T07:48:39.472Z,35.10
2018-08-28T07:51:07.552Z,35.30
2018-08-28T07:53:35.615Z,35.30
2018-08-28T07:56:03.679Z,35.60
2018-08-28T07:58:31.736Z,35.80
2018-08-28T08:00:59.813Z,35.80
2018-08-28T08:03:27.897Z,36.30
2018-08-28T08:05:56.265Z,36.80
2018-08-28T08:08:24.325Z,37.30
2018-08-28T08:10:52.843Z,37.70
2018-08-28T08:13:20.928Z,38.00
2018-08-28T08:15:49.020Z,37.90
2018-08-28T08:18:17.045Z,37.60
2018-08-28T08:20:45.110Z,37.40
2018-08-28T08:23:13.173Z,36.20
2018-08-28T08:25:41.873Z,36.00
2018-08-28T08:28:10.371Z,36.60
2018-08-28T08:30:38.224Z,37.30
2018-08-28T08:33:06.364Z,38.30
2018-08-28T08:35:34.461Z,39.50
2018-08-28T08:38:02.504Z,40.40
2018-08-28T08:40:30.553Z,40.90
2018-08-28T08:42:58.623Z,41.30
2018-08-28T08:45:26.685Z,41.40
2018-08-28T08:47:54.822Z,41.30
2018-08-28T08:50:22.857Z,41.10
2018-08-28T08:52:50.912Z,41.20
2018-08-28T08:55:18.976Z,41.80
2018-08-28T08:57:47.028Z,42.40
2018-08-28T09:00:15.093Z,42.90
2018-08-28T09:02:43.148Z,43.60
2018-08-28T09:05:11.204Z,44.10
2018-08-28T09:07:39.274Z,44.20
2018-08-28T09:10:07.337Z,44.50
2018-08-28T09:12:35.392Z,44.60
2018-08-28T09:15:03.444Z,44.90
2018-08-28T09:17:31.496Z,45.10
2018-08-28T09:19:59.562Z,45.30
2018-08-28T09:22:27.620Z,45.50
2018-08-28T09:24:55.684Z,45.70
2018-08-28T09:27:23.765Z,46.10
2018-08-28T09:29:51.823Z,46.00
2018-08-28T09:32:19.966Z,46.10
2018-08-28T09:34:47.935Z,46.30
2018-08-28T09:37:16.001Z,46.10
2018-08-28T09:39:44.086Z,46.00
2018-08-28T09:42:12.120Z,44.90
2018-08-28T09:44:40.182Z,44.90
2018-08-28T09:47:08.249Z,45.10
2018-08-28T09:49:36.317Z,45.40
2018-08-28T09:52:04.829Z,46.10
2018-08-28T09:54:32.876Z,46.40
2018-08-28T09:57:00.954Z,47.20
2018-08-28T09:59:29.018Z,47.40
2018-08-28T10:01:57.097Z,47.00
2018-08-28T10:04:25.161Z,46.20
2018-08-28T10:06:53.222Z,46.20
2018-08-28T10:09:21.269Z,46.40
2018-08-28T10:11:49.327Z,46.60
2018-08-28T10:14:17.371Z,46.10
2018-08-28T10:16:45.440Z,44.90
2018-08-28T10:19:13.513Z,44.60
2018-08-28T10:21:41.560Z,44.20
2018-08-28T10:24:09.633Z,43.50
2018-08-28T10:26:37.695Z,41.70
2018-08-28T10:29:05.975Z,39.70
2018-08-28T10:31:34.029Z,38.10
2018-08-28T10:34:02.084Z,37.00
2018-08-28T10:36:30.148Z,36.40
2018-08-28T10:38:58.220Z,37.20
2018-08-28T10:41:26.264Z,37.60
2018-08-28T10:43:54.315Z,37.10
2018-08-28T10:46:22.427Z,36.00
2018-08-28T10:48:50.444Z,34.70
2018-08-28T10:51:18.761Z,33.40
2018-08-28T10:53:47.365Z,32.60
2018-08-28T10:56:15.413Z,32.10
2018-08-28T10:58:43.552Z,32.00
2018-08-28T11:01:11.534Z,33.20
2018-08-28T11:03:39.687Z,34.90
2018-08-28T11:06:07.740Z,36.30
2018-08-28T11:08:35.870Z,37.40
2018-08-28T11:11:03.861Z,38.30
2018-08-28T11:13:31.934Z,38.50
2018-08-28T11:16:00.048Z,38.00
2018-08-28T11:18:28.058Z,37.90
2018-08-28T11:20:56.126Z,38.30
2018-08-28T11:23:24.200Z,38.70
2018-08-28T11:25:52.244Z,39.00
2018-08-28T11:28:20.300Z,39.20
2018-08-28T11:30:48.357Z,39.40
2018-08-28T11:33:16.429Z,39.50
2018-08-28T11:35:44.514Z,39.10
2018-08-28T11:38:12.600Z,38.80
2018-08-28T11:40:40.615Z,38.30
2018-08-28T11:43:08.695Z,37.80
2018-08-28T11:45:36.742Z,37.50
2018-08-28T11:48:05.372Z,37.20
2018-08-28T11:50:33.420Z,36.70
2018-08-28T11:53:01.544Z,36.40
2018-08-28T11:55:29.571Z,36.20
2018-08-28T11:57:57.612Z,36.00
2018-08-28T12:00:25.662Z,35.90
2018-08-28T12:02:53.744Z,35.50
2018-08-28T12:05:21.893Z,35.10
2018-08-28T12:07:50.000Z,34.80
2018-08-28T12:10:17.943Z,34.30
2018-08-28T12:12:46.022Z,34.20
2018-08-28T12:15:14.100Z,34.00
2018-08-28T12:17:42.171Z,33.90
2018-08-28T12:20:10.941Z,34.00
2018-08-28T12:22:38.996Z,33.60
2018-08-28T12:25:07.625Z,33.30
2018-08-28T12:27:35.698Z,33.20
2018-08-28T12:30:03.897Z,33.30
2018-08-28T12:32:31.965Z,33.10
2018-08-28T12:35:00.029Z,33.00
2018-08-28T12:37:28.100Z,33.10
2018-08-28T12:39:56.172Z,33.20
2018-08-28T12:42:24.225Z,33.40
2018-08-28T12:44:52.289Z,33.40
2018-08-28T12:47:20.357Z,33.30
2018-08-28T12:49:48.428Z,33.40
2018-08-28T12:52:16.493Z,33.60
2018-08-28T12:54:44.712Z,33.80
2018-08-28T12:57:12.866Z,33.80
2018-08-28T12:59:40.946Z,33.90
2018-08-28T13:02:09.024Z,34.00
2018-08-28T13:04:37.072Z,34.00
2018-08-28T13:07:05.309Z,34.10
2018-08-28T13:09:33.376Z,34.10
2018-08-28T13:12:01.433Z,34.00
2018-08-28T13:14:29.540Z,34.10
2018-08-28T13:16:57.560Z,34.10
2018-08-28T13:19:25.653Z,33.90
2018-08-28T13:21:53.725Z,33.40
2018-08-28T13:24:21.799Z,33.30
2018-08-28T13:26:49.859Z,33.20
2018-08-28T13:29:17.938Z,33.30
2018-08-28T13:31:45.997Z,33.40
2018-08-28T13:34:14.051Z,33.50
2018-08-28T13:36:42.127Z,33.50
2018-08-28T13:39:10.180Z,33.60
2018-08-28T13:41:38.241Z,33.80
2018-08-28T13:44:06.436Z,33.90
2018-08-28T13:46:34.496Z,33.80
2018-08-28T13:49:02.580Z,33.90
2018-08-28T13:51:30.644Z,33.90
2018-08-28T13:53:58.769Z,33.90
2018-08-28T13:56:26.774Z,34.00
2018-08-28T13:58:54.868Z,33.90
2018-08-28T14:01:22.919Z,33.70
2018-08-28T14:03:50.992Z,33.70
2018-08-28T14:06:19.056Z,33.50
2018-08-28T14:08:48.177Z,33.40
2018-08-28T14:11:16.225Z,32.90
2018-08-28T14:13:44.371Z,32.60
2018-08-28T14:16:12.413Z,32.50
2018-08-28T14:18:40.441Z,32.30
2018-08-28T14:21:08.508Z,32.10
2018-08-28T14:23:36.570Z,31.80
2018-08-28T14:26:04.642Z,31.60
2018-08-28T14:28:32.705Z,31.60
2018-08-28T14:31:00.775Z,31.50
2018-08-28T14:33:28.834Z,31.40
2018-08-28T14:35:56.907Z,31.40
2018-08-28T14:38:25.006Z,30.90
2018-08-28T14:40:53.054Z,30.90
2018-08-28T14:43:21.129Z,30.80
2018-08-28T14:45:49.202Z,30.80
2018-08-28T14:48:17.268Z,30.70
2018-08-28T14:50:45.329Z,30.60
2018-08-28T14:53:13.724Z,30.50
2018-08-28T14:55:42.020Z,30.30
2018-08-28T14:58:10.107Z,30.00
2018-08-28T15:00:38.392Z,29.90
2018-08-28T15:03:06.503Z,30.00
2018-08-28T15:05:34.597Z,30.10
2018-08-28T15:08:02.696Z,30.10
2018-08-28T15:10:30.761Z,30.20
2018-08-28T15:12:58.820Z,30.20
2018-08-28T15:15:26.889Z,30.20
2018-08-28T15:17:54.945Z,30.30
2018-08-28T15:20:23.023Z,30.40
2018-08-28T15:22:51.073Z,30.40
2018-08-28T15:25:19.141Z,30.20
2018-08-28T15:27:47.205Z,29.70
2018-08-28T15:30:15.265Z,29.40
2018-08-28T15:32:43.347Z,29.20
2018-08-28T15:35:11.401Z,29.10
2018-08-28T15:37:39.469Z,29.10
2018-08-28T15:40:08.146Z,29.10
2018-08-28T15:42:36.208Z,28.90
2018-08-28T15:45:04.323Z,28.70
2018-08-28T15:47:32.382Z,28.60
2018-08-28T15:50:00.677Z,28.50
2018-08-28T15:52:28.750Z,28.50
2018-08-28T15:54:56.864Z,28.50
2018-08-28T15:57:24.901Z,28.60
2018-08-28T15:59:52.980Z,28.60
2018-08-28T16:02:21.045Z,28.70
2018-08-28T16:04:49.194Z,28.60
2018-08-28T16:07:17.169Z,28.60
2018-08-28T16:09:45.766Z,28.60
2018-08-28T16:12:13.820Z,28.60
2018-08-28T16:14:41.872Z,28.50
2018-08-28T16:17:09.947Z,28.50
2018-08-28T16:19:38.010Z,28.40
2018-08-28T16:22:06.252Z,28.40
2018-08-28T16:24:34.282Z,28.30
2018-08-28T16:27:02.355Z,28.20
2018-08-28T16:29:30.400Z,28.10
2018-08-28T16:31:58.461Z,28.00
2018-08-28T16:34:26.508Z,27.90
2018-08-28T16:36:54.578Z,27.90
2018-08-28T16:39:22.675Z,27.80
2018-08-28T16:41:50.677Z,27.80
2018-08-28T16:44:18.729Z,27.70
2018-08-28T16:46:46.848Z,27.60
2018-08-28T16:49:14.932Z,27.50
2018-08-28T16:51:43.034Z,27.50
2018-08-28T16:54:11.085Z,27.30
2018-08-28T16:56:39.146Z,27.30
2018-08-28T16:59:07.197Z,27.20
2018-08-28T17:01:35.310Z,27.10
2018-08-28T17:04:03.304Z,27.00
2018-08-28T17:06:31.382Z,26.90
2018-08-28T17:08:59.435Z,26.90
2018-08-28T17:11:27.567Z,26.80
2018-08-28T17:13:55.619Z,26.70
2018-08-28T17:16:23.684Z,26.60
2018-08-28T17:18:51.765Z,26.50
2018-08-28T17:21:19.829Z,26.40
2018-08-28T17:23:47.881Z,26.30
2018-08-28T17:26:15.960Z,26.10
2018-08-28T17:28:44.012Z,26.00
2018-08-28T17:31:12.076Z,25.90
2018-08-28T17:33:40.132Z,25.80
2018-08-28T17:36:08.209Z,25.60
2018-08-28T17:38:36.282Z,25.50
2018-08-28T17:41:04.349Z,25.30
2018-08-28T17:43:32.399Z,25.20
2018-08-28T17:46:00.454Z,25.00
2018-08-28T17:48:28.535Z,24.80
2018-08-28T17:50:56.607Z,24.70
2018-08-28T17:53:24.683Z,24.50
2018-08-28T17:55:52.746Z,24.40
2018-08-28T17:58:20.829Z,24.20
2018-08-28T18:00:48.884Z,24.10
2018-08-28T18:03:16.977Z,23.90
2018-08-28T18:05:45.052Z,23.80
2018-08-28T18:08:13.097Z,23.60
2018-08-28T18:10:41.183Z,23.50
2018-08-28T18:13:09.836Z,23.30
2018-08-28T18:15:38.120Z,23.20
2018-08-28T18:18:06.244Z,23.00
2018-08-28T18:20:34.309Z,22.90
2018-08-28T18:23:02.385Z,22.70
2018-08-28T18:25:30.465Z,22.60
2018-08-28T18:27:58.849Z,22.40
2018-08-28T18:30:26.913Z,22.30
2018-08-28T18:32:54.994Z,22.10
2018-08-28T18:35:23.045Z,22.00
2018-08-28T18:37:51.142Z,21.80
2018-08-28T18:40:19.198Z,21.70
2018-08-28T18:42:47.253Z,21.60
2018-08-28T18:45:15.309Z,21.50
2018-08-28T18:47:43.365Z,21.30
2018-08-28T18:50:11.404Z,21.20
2018-08-28T18:52:39.478Z,21.10
2018-08-28T18:55:07.528Z,21.00
2018-08-28T18:57:35.595Z,20.90
2018-08-28T19:00:03.653Z,20.80
2018-08-28T19:02:31.721Z,20.70
2018-08-28T19:04:59.773Z,20.70
2018-08-28T19:07:28.004Z,20.60
2018-08-28T19:09:56.088Z,20.50
2018-08-28T19:12:24.152Z,20.40
2018-08-28T19:14:52.209Z,20.30
2018-08-28T19:17:20.269Z,20.20
2018-08-28T19:19:48.336Z,20.20
2018-08-28T19:22:16.401Z,20.10
2018-08-28T19:24:44.451Z,20.00
2018-08-28T19:27:13.201Z,19.90
2018-08-28T19:29:41.482Z,19.80
2018-08-28T19:32:09.661Z,19.80
2018-08-28T19:34:37.833Z,19.70
2018-08-28T19:37:05.895Z,19.60
2018-08-28T19:39:33.948Z,19.50
2018-08-28T19:42:02.016Z,19.50
2018-08-28T19:44:30.305Z,19.40
2018-08-28T19:46:58.377Z,19.30
2018-08-28T19:49:26.428Z,19.20
2018-08-28T19:51:54.521Z,19.20
2018-08-28T19:54:22.545Z,19.10
2018-08-28T19:56:50.622Z,19.00
2018-08-28T19:59:18.669Z,19.00
2018-08-28T20:01:46.772Z,18.90
2018-08-28T20:04:14.816Z,18.80
2018-08-28T20:06:42.889Z,18.70
2018-08-28T20:09:10.953Z,18.70
2018-08-28T20:11:39.000Z,18.60
2018-08-28T20:14:07.073Z,18.60
2018-08-28T20:16:35.124Z,18.50
2018-08-28T20:19:03.201Z,18.40
2018-08-28T20:21:31.463Z,18.30
2018-08-28T20:23:59.513Z,18.30
2018-08-28T20:26:27.577Z,18.20
2018-08-28T20:28:55.634Z,18.20
2018-08-28T20:31:23.698Z,18.10
2018-08-28T20:33:51.856Z,18.00
2018-08-28T20:36:19.900Z,18.00
2018-08-28T20:38:47.955Z,17.90
2018-08-28T20:41:16.003Z,17.90
2018-08-28T20:43:44.354Z,17.80
2018-08-28T20:46:12.477Z,17.70
2018-08-28T20:48:40.535Z,17.60
2018-08-28T20:51:08.580Z,17.60
2018-08-28T20:53:36.909Z,17.50
2018-08-28T20:56:05.213Z,17.40
2018-08-28T20:58:33.272Z,17.40
2018-08-28T21:01:01.316Z,17.30
2018-08-28T21:03:29.379Z,17.20
2018-08-28T21:05:57.435Z,17.20
2018-08-28T21:08:25.508Z,17.10
2018-08-28T21:10:53.576Z,17.00
2018-08-28T21:13:21.628Z,17.00
2018-08-28T21:15:49.698Z,16.90
2018-08-28T21:18:17.757Z,16.90
2018-08-28T21:20:45.873Z,16.80
2018-08-28T21:23:13.945Z,16.70
2018-08-28T21:25:42.045Z,16.70
2018-08-28T21:28:10.106Z,16.60
2018-08-28T21:30:38.170Z,16.60
2018-08-28T21:33:06.337Z,16.50
2018-08-28T21:35:34.399Z,16.40
2018-08-28T21:38:02.504Z,16.40
2018-08-28T21:40:30.572Z,16.40
2018-08-28T21:42:58.648Z,16.30
2018-08-28T21:45:26.700Z,16.20
2018-08-28T21:47:54.762Z,16.20
2018-08-28T21:50:22.813Z,16.10
2018-08-28T21:52:50.877Z,16.10
2018-08-28T21:55:18.993Z,16.00
2018-08-28T21:57:47.033Z,15.90
2018-08-28T22:00:15.139Z,15.90
2018-08-28T22:02:43.139Z,15.90
2018-08-28T22:05:11.192Z,15.80
2018-08-28T22:07:39.521Z,15.80
2018-08-28T22:10:07.713Z,15.70
2018-08-28T22:12:35.806Z,15.70
2018-08-28T22:15:03.912Z,15.60
2018-08-28T22:17:31.977Z,15.50
2018-08-28T22:20:04.092Z,15.50
2018-08-28T22:22:32.120Z,15.40
2018-08-28T22:25:00.209Z,15.40
2018-08-28T22:27:28.238Z,15.30
2018-08-28T22:29:56.301Z,15.30
2018-08-28T22:32:24.370Z,15.30
2018-08-28T22:34:52.403Z,15.30
2018-08-28T22:37:20.433Z,15.30
2018-08-28T22:39:48.470Z,15.30
2018-08-28T22:42:16.497Z,15.30
2018-08-28T22:44:44.529Z,15.40
2018-08-28T22:47:12.555Z,15.40
2018-08-28T22:49:40.621Z,15.40
2018-08-28T22:52:08.682Z,15.50
2018-08-28T22:54:36.720Z,15.50
2018-08-28T22:57:04.940Z,15.50
2018-08-28T22:59:32.975Z,15.60
2018-08-28T23:02:01.008Z,15.60
2018-08-28T23:04:29.045Z,15.70
2018-08-28T23:06:57.081Z,15.60
2018-08-28T23:09:25.109Z,15.70
2018-08-28T23:11:53.138Z,15.70
2018-08-28T23:14:21.193Z,15.70
2018-08-28T23:16:49.208Z,15.70
2018-08-28T23:19:17.257Z,15.70
2018-08-28T23:21:45.309Z,15.70
2018-08-28T23:24:13.349Z,15.70
2018-08-28T23:26:41.378Z,15.70
2018-08-28T23:29:09.412Z,15.70
2018-08-28T23:31:37.448Z,15.80
2018-08-28T23:34:05.696Z,15.80
2018-08-28T23:36:33.749Z,15.80
2018-08-28T23:39:01.772Z,15.80
2018-08-28T23:41:29.812Z,15.90
2018-08-28T23:43:57.861Z,15.90
2018-08-28T23:46:25.897Z,15.90
2018-08-28T23:48:53.937Z,16.00
2018-08-28T23:51:21.987Z,16.00
2018-08-28T23:53:50.018Z,16.10
2018-08-28T23:56:18.057Z,16.10
2018-08-28T23:58:46.085Z,16.10
